aviador You're here:

OIMB Decoded Metar

BIRJAND in IRAN
Report Time2017-10-22 17:00:00
UTC Time2017-10-22 17:22:25
Flight Rules vfr VFR
Wind110° at 04 kt
W.Decomp.*RWY 10: 4.0 kt HW 0.6 kt RCW
RWY 08: 3.5 kt HW 1.9 kt RCW
W.Rank110° ranks 3
Current wind is below 110° avg. (6.8)
Visibility9999 m
Phenomena:N/A
Clouds:N/A
Expected CloudBase > 11,200 ft AGL from Temp-Dew spread
CeilingNone
Temp12°C (ISA +7)
Dew Point-16°C (13% RH)
AAT7.2°C
QNH1017 hPa
Density Alt5,574 ft
Elevation4,892 ft
Report Wrong Elevation
Raw Report
METAR OIMB 221700Z 11004KT CAVOK 12/M16 Q1017=

Extra information for OIMB:More info

Metar Taf Metar & Taf Last 4 Metars F.Rules Stats Wind Profile Meteogram Temp Stats Airport Information Weather charts Add Link Nearby VenuesMetar ALERT Operation Metar Decoded Social comments